createdAt,value
2023-05-09T00:00:17.496Z,74.9
2023-05-09T00:01:17.040Z,75.0
2023-05-09T00:02:16.769Z,75.0
2023-05-09T00:03:17.427Z,75.2
2023-05-09T00:04:17.100Z,75.2
2023-05-09T00:05:17.158Z,75.2
2023-05-09T00:06:16.748Z,75.0
2023-05-09T00:07:17.293Z,74.9
2023-05-09T00:08:16.873Z,74.8
2023-05-09T00:09:17.425Z,74.8
2023-05-09T00:10:16.999Z,74.9
2023-05-09T00:11:16.554Z,75.4
2023-05-09T00:12:17.387Z,75.4
2023-05-09T00:13:16.963Z,75.4
2023-05-09T00:14:16.541Z,75.6
2023-05-09T00:15:17.133Z,75.6
2023-05-09T00:16:16.800Z,75.4
2023-05-09T00:17:17.399Z,75.2
2023-05-09T00:18:16.936Z,75.1
2023-05-09T00:19:17.495Z,75.4
2023-05-09T00:20:17.120Z,75.2
2023-05-09T00:21:16.678Z,75.2
2023-05-09T00:22:17.350Z,75.0
2023-05-09T00:23:16.996Z,75.2
2023-05-09T00:24:16.667Z,75.1
2023-05-09T00:25:17.696Z,75.1
2023-05-09T00:26:17.318Z,74.9
2023-05-09T00:27:16.880Z,75.6
2023-05-09T00:28:17.460Z,75.6
2023-05-09T00:29:17.006Z,75.1
2023-05-09T00:30:16.593Z,74.9
2023-05-09T00:31:17.198Z,75.0
2023-05-09T00:32:17.194Z,75.3
2023-05-09T00:33:16.882Z,75.1
2023-05-09T00:34:17.444Z,75.4
2023-05-09T00:35:17.287Z,75.4
2023-05-09T00:36:16.926Z,75.3
2023-05-09T00:37:17.473Z,75.3
2023-05-09T00:38:17.045Z,75.3
2023-05-09T00:39:16.579Z,75.3
2023-05-09T00:40:17.137Z,75.5
2023-05-09T00:41:16.706Z,75.5
2023-05-09T00:42:16.769Z,75.5
2023-05-09T00:43:17.364Z,75.7
2023-05-09T00:44:16.902Z,75.7
2023-05-09T00:45:17.480Z,75.8
2023-05-09T00:46:17.139Z,75.8
2023-05-09T00:47:16.773Z,76.5
2023-05-09T00:48:17.388Z,76.4
2023-05-09T00:49:16.972Z,76.5
2023-05-09T00:50:16.513Z,76.1
2023-05-09T00:51:17.097Z,76.0
2023-05-09T00:52:16.983Z,75.5
2023-05-09T00:53:16.515Z,75.6
2023-05-09T00:54:17.061Z,75.8
2023-05-09T00:55:16.907Z,75.8
2023-05-09T00:56:16.576Z,75.7
2023-05-09T00:57:17.122Z,75.7
2023-05-09T00:58:16.660Z,75.7
2023-05-09T00:59:17.796Z,75.7
2023-05-09T01:00:17.337Z,75.8
2023-05-09T01:01:16.974Z,75.8
2023-05-09T01:02:16.926Z,75.9
2023-05-09T01:03:17.767Z,75.8
2023-05-09T01:04:17.371Z,75.7
2023-05-09T01:05:17.401Z,75.8
2023-05-09T01:06:17.050Z,75.9
2023-05-09T01:07:16.629Z,75.9
2023-05-09T01:08:17.161Z,76.0
2023-05-09T01:09:16.763Z,76.2
2023-05-09T01:10:17.304Z,76.1
2023-05-09T01:11:16.836Z,76.0
2023-05-09T01:12:16.548Z,76.4
2023-05-09T01:13:17.157Z,76.4
2023-05-09T01:14:16.746Z,76.5
2023-05-09T01:15:17.299Z,76.3
2023-05-09T01:16:16.948Z,75.9
2023-05-09T01:17:16.570Z,75.9
2023-05-09T01:18:17.101Z,76.1
2023-05-09T01:19:16.647Z,76.0
2023-05-09T01:20:17.209Z,75.9
2023-05-09T01:21:16.753Z,76.0
2023-05-09T01:22:17.370Z,75.8
2023-05-09T01:23:16.920Z,75.7
2023-05-09T01:24:17.487Z,75.1
2023-05-09T01:25:17.177Z,75.4
2023-05-09T01:26:16.760Z,75.5
2023-05-09T01:27:17.283Z,75.6
2023-05-09T01:28:16.847Z,75.6
2023-05-09T01:29:17.437Z,75.5
2023-05-09T01:30:17.035Z,75.5
2023-05-09T01:31:16.622Z,75.4
2023-05-09T01:32:17.191Z,75.4
2023-05-09T01:33:16.760Z,75.5
2023-05-09T01:34:17.364Z,75.7
2023-05-09T01:35:17.312Z,75.8
2023-05-09T01:36:16.963Z,75.6
2023-05-09T01:37:16.604Z,75.5
2023-05-09T01:38:17.230Z,75.5
2023-05-09T01:39:16.792Z,75.7
2023-05-09T01:40:17.327Z,75.6
2023-05-09T01:41:16.919Z,75.9
2023-05-09T01:42:17.158Z,75.6
2023-05-09T01:43:16.714Z,75.7
2023-05-09T01:44:17.412Z,75.7
2023-05-09T01:45:17.621Z,75.7
2023-05-09T01:46:17.439Z,75.8
2023-05-09T01:47:17.032Z,75.7
2023-05-09T01:48:16.588Z,75.7
2023-05-09T01:49:17.149Z,75.7
2023-05-09T01:50:16.747Z,75.6
2023-05-09T01:51:17.294Z,75.4
2023-05-09T01:52:17.159Z,75.6
2023-05-09T01:53:16.689Z,75.6
2023-05-09T01:54:17.247Z,75.8
2023-05-09T01:55:17.056Z,75.7
2023-05-09T01:56:16.647Z,75.5
2023-05-09T01:57:17.200Z,75.5
2023-05-09T01:58:16.769Z,75.5
2023-05-09T01:59:17.317Z,75.5
2023-05-09T02:00:16.897Z,75.4
2023-05-09T02:01:17.677Z,75.4
2023-05-09T02:02:16.702Z,75.5
2023-05-09T02:03:17.459Z,75.5
2023-05-09T02:04:17.044Z,75.6
2023-05-09T02:05:17.190Z,75.5
2023-05-09T02:06:16.775Z,75.6
2023-05-09T02:07:17.297Z,75.7
2023-05-09T02:08:16.869Z,75.9
2023-05-09T02:09:17.401Z,76.1
2023-05-09T02:10:16.955Z,76.1
2023-05-09T02:11:17.496Z,76.5
2023-05-09T02:12:17.104Z,76.3
2023-05-09T02:13:16.761Z,76.3
2023-05-09T02:14:17.326Z,76.4
2023-05-09T02:15:17.013Z,76.4
2023-05-09T02:16:16.657Z,76.3
2023-05-09T02:17:17.287Z,76.3
2023-05-09T02:18:16.872Z,76.3
2023-05-09T02:19:17.430Z,76.4
2023-05-09T02:20:17.037Z,76.5
2023-05-09T02:21:16.677Z,76.4
2023-05-09T02:22:16.636Z,76.5
2023-05-09T02:23:17.172Z,76.5
2023-05-09T02:24:16.724Z,76.5
2023-05-09T02:25:17.577Z,76.5
2023-05-09T02:26:17.207Z,76.5
2023-05-09T02:27:16.742Z,76.6
2023-05-09T02:28:17.290Z,76.5
2023-05-09T02:29:16.857Z,76.5
2023-05-09T02:30:17.457Z,76.5
2023-05-09T02:31:17.006Z,76.7
2023-05-09T02:32:16.900Z,76.6
2023-05-09T02:33:16.508Z,76.6
2023-05-09T02:34:17.091Z,76.5
2023-05-09T02:35:16.893Z,76.5
2023-05-09T02:36:17.492Z,76.7
2023-05-09T02:37:17.040Z,76.5
2023-05-09T02:38:16.578Z,76.6
2023-05-09T02:39:17.139Z,76.8
2023-05-09T02:40:16.698Z,76.5
2023-05-09T02:41:17.320Z,76.5
2023-05-09T02:42:17.091Z,76.4
2023-05-09T02:43:16.654Z,76.8
2023-05-09T02:44:17.242Z,76.5
2023-05-09T02:45:17.076Z,76.4
2023-05-09T02:46:16.745Z,76.5
2023-05-09T02:47:17.350Z,76.6
2023-05-09T02:48:16.943Z,76.6
2023-05-09T02:49:32.219Z,76.6
2023-05-09T02:50:17.075Z,76.5
2023-05-09T02:51:16.668Z,76.7
2023-05-09T02:52:16.744Z,76.7
2023-05-09T02:53:17.307Z,76.6
2023-05-09T02:54:16.853Z,76.7
2023-05-09T02:55:17.864Z,76.6
2023-05-09T02:56:17.457Z,76.6
2023-05-09T02:57:17.037Z,76.6
2023-05-09T02:58:16.731Z,76.8
2023-05-09T02:59:17.322Z,76.8
2023-05-09T03:00:16.884Z,76.7
2023-05-09T03:01:17.597Z,76.8
2023-05-09T03:02:16.662Z,76.7
2023-05-09T03:03:17.442Z,76.7
2023-05-09T03:04:17.044Z,76.7
2023-05-09T03:05:16.950Z,76.6
2023-05-09T03:06:16.536Z,76.6
2023-05-09T03:07:17.103Z,76.7
2023-05-09T03:08:16.639Z,76.6
2023-05-09T03:09:17.162Z,76.7
2023-05-09T03:10:16.726Z,76.7
2023-05-09T03:11:17.304Z,76.7
2023-05-09T03:12:17.392Z,76.8
2023-05-09T03:13:17.075Z,76.8
2023-05-09T03:14:16.667Z,76.8
2023-05-09T03:15:17.231Z,77.0
2023-05-09T03:16:16.844Z,76.8
2023-05-09T03:17:17.449Z,76.9
2023-05-09T03:18:16.963Z,76.9
2023-05-09T03:19:16.499Z,76.9
2023-05-09T03:20:17.082Z,77.0
2023-05-09T03:21:16.648Z,77.1
2023-05-09T03:22:16.501Z,77.1
2023-05-09T03:23:17.066Z,77.2
2023-05-09T03:24:16.645Z,77.2
2023-05-09T03:25:17.766Z,77.3
2023-05-09T03:26:17.420Z,77.5
2023-05-09T03:27:16.997Z,77.5
2023-05-09T03:28:16.557Z,77.4
2023-05-09T03:29:17.124Z,77.3
2023-05-09T03:30:16.714Z,77.8
2023-05-09T03:31:17.276Z,77.6
2023-05-09T03:32:17.025Z,77.5
2023-05-09T03:33:16.555Z,77.6
2023-05-09T03:34:17.113Z,77.8
2023-05-09T03:35:17.142Z,77.6
2023-05-09T03:36:16.849Z,77.6
2023-05-09T03:37:17.390Z,77.6
2023-05-09T03:38:16.969Z,77.7
2023-05-09T03:39:16.525Z,77.7
2023-05-09T03:40:17.100Z,77.7
2023-05-09T03:41:16.642Z,77.6
2023-05-09T03:42:16.725Z,77.9
2023-05-09T03:43:17.297Z,77.9
2023-05-09T03:44:16.837Z,77.9
2023-05-09T03:45:17.440Z,78.2
2023-05-09T03:46:17.048Z,78.2
2023-05-09T03:47:16.648Z,78.2
2023-05-09T03:48:17.209Z,78.4
2023-05-09T03:49:16.758Z,78.4
2023-05-09T03:50:17.305Z,78.5
2023-05-09T03:51:16.872Z,78.4
2023-05-09T03:52:16.985Z,78.6
2023-05-09T03:53:16.582Z,78.6
2023-05-09T03:54:17.144Z,78.6
2023-05-09T03:55:17.018Z,78.7
2023-05-09T03:56:16.569Z,78.7
2023-05-09T03:57:17.111Z,78.7
2023-05-09T03:58:16.730Z,78.8
2023-05-09T03:59:17.312Z,78.7
2023-05-09T04:00:16.839Z,78.8
2023-05-09T04:01:17.377Z,79.1
2023-05-09T04:02:17.333Z,79.0
2023-05-09T04:03:17.127Z,79.0
2023-05-09T04:04:16.755Z,79.0
2023-05-09T04:05:18.001Z,78.9
2023-05-09T04:06:16.598Z,79.0
2023-05-09T04:07:17.194Z,79.0
2023-05-09T04:08:16.756Z,78.9
2023-05-09T04:09:17.337Z,79.0
2023-05-09T04:10:16.900Z,79.0
2023-05-09T04:11:17.456Z,78.8
2023-05-09T04:12:17.468Z,78.9
2023-05-09T04:13:17.097Z,78.9
2023-05-09T04:14:16.681Z,78.8
2023-05-09T04:15:17.448Z,78.8
2023-05-09T04:16:17.063Z,78.8
2023-05-09T04:17:16.795Z,78.7
2023-05-09T04:18:17.320Z,78.6
2023-05-09T04:19:16.956Z,78.6
2023-05-09T04:20:17.586Z,78.6
2023-05-09T04:21:17.153Z,78.4
2023-05-09T04:22:17.043Z,78.3
2023-05-09T04:23:16.599Z,78.4
2023-05-09T04:24:17.142Z,78.5
2023-05-09T04:25:17.115Z,78.5
2023-05-09T04:26:16.788Z,78.6
2023-05-09T04:27:17.362Z,78.5
2023-05-09T04:28:16.975Z,78.3
2023-05-09T04:29:16.507Z,78.3
2023-05-09T04:30:17.062Z,78.2
2023-05-09T04:31:16.869Z,78.2
2023-05-09T04:32:17.577Z,77.8
2023-05-09T04:33:17.153Z,77.8
2023-05-09T04:34:16.736Z,77.9
2023-05-09T04:35:20.893Z,77.9
2023-05-09T04:36:16.714Z,77.9
2023-05-09T04:37:17.267Z,78.1
2023-05-09T04:38:16.812Z,78.0
2023-05-09T04:39:17.373Z,78.1
2023-05-09T04:40:16.919Z,78.0
2023-05-09T04:41:17.457Z,78.0
2023-05-09T04:42:16.622Z,78.0
2023-05-09T04:43:17.171Z,78.1
2023-05-09T04:44:16.743Z,78.1
2023-05-09T04:45:17.706Z,77.7
2023-05-09T04:46:17.413Z,77.8
2023-05-09T04:47:16.993Z,77.7
2023-05-09T04:48:16.528Z,77.7
2023-05-09T04:49:17.084Z,77.7
2023-05-09T04:50:16.671Z,77.8
2023-05-09T04:51:17.247Z,77.8
2023-05-09T04:52:17.318Z,77.8
2023-05-09T04:53:16.885Z,78.4
2023-05-09T04:54:17.409Z,78.2
2023-05-09T04:55:17.278Z,78.4
2023-05-09T04:56:16.946Z,78.2
2023-05-09T04:57:19.256Z,78.2
2023-05-09T04:58:16.852Z,78.4
2023-05-09T04:59:17.420Z,78.5
2023-05-09T05:00:17.008Z,78.5
2023-05-09T05:01:16.751Z,78.7
2023-05-09T05:02:16.577Z,78.6
2023-05-09T05:03:17.158Z,78.6
2023-05-09T05:04:16.786Z,78.8
2023-05-09T05:05:17.660Z,78.9
2023-05-09T05:06:17.228Z,78.9
2023-05-09T05:07:16.772Z,78.9
2023-05-09T05:08:17.352Z,78.4
2023-05-09T05:09:16.908Z,78.5
2023-05-09T05:10:17.456Z,78.7
2023-05-09T05:11:17.030Z,78.7
2023-05-09T05:12:17.508Z,78.9
2023-05-09T05:13:17.225Z,78.7
2023-05-09T05:14:16.830Z,78.6
2023-05-09T05:15:17.529Z,78.5
2023-05-09T05:16:17.238Z,78.4
2023-05-09T05:17:16.823Z,78.6
2023-05-09T05:18:17.440Z,78.6
2023-05-09T05:19:17.040Z,78.1
2023-05-09T05:20:16.584Z,78.0
2023-05-09T05:21:17.183Z,77.8
2023-05-09T05:22:16.824Z,77.8
2023-05-09T05:23:17.356Z,77.7
2023-05-09T05:24:16.945Z,77.0
2023-05-09T05:25:18.052Z,77.0
2023-05-09T05:26:16.578Z,77.1
2023-05-09T05:27:17.130Z,77.0
2023-05-09T05:28:16.714Z,76.8
2023-05-09T05:29:17.291Z,76.6
2023-05-09T05:30:16.863Z,76.1
2023-05-09T05:31:17.573Z,76.0
2023-05-09T05:32:16.845Z,75.7
2023-05-09T05:33:17.440Z,75.3
2023-05-09T05:34:17.032Z,75.3
2023-05-09T05:35:17.056Z,75.1
2023-05-09T05:36:16.746Z,74.8
2023-05-09T05:37:17.295Z,74.9
2023-05-09T05:38:16.830Z,74.4
2023-05-09T05:39:17.380Z,74.1
2023-05-09T05:40:16.936Z,73.4
2023-05-09T05:41:17.488Z,73.8
2023-05-09T05:42:17.260Z,73.1
2023-05-09T05:43:16.829Z,72.2
2023-05-09T05:44:17.383Z,72.4
2023-05-09T05:45:17.351Z,72.0
2023-05-09T05:46:17.096Z,71.7
2023-05-09T05:47:16.904Z,71.8
2023-05-09T05:48:17.117Z,71.8
2023-05-09T05:49:16.645Z,71.5
2023-05-09T05:50:17.224Z,71.6
2023-05-09T05:51:17.090Z,70.9
2023-05-09T05:52:16.604Z,69.7
2023-05-09T05:53:17.154Z,68.8
2023-05-09T05:54:16.689Z,69.0
2023-05-09T05:55:17.476Z,68.4
2023-05-09T05:56:17.112Z,68.2
2023-05-09T05:57:16.681Z,68.4
2023-05-09T05:58:17.221Z,68.5
2023-05-09T05:59:16.762Z,67.0
2023-05-09T06:00:17.351Z,67.3
2023-05-09T06:01:16.897Z,66.9
2023-05-09T06:02:17.271Z,65.5
2023-05-09T06:03:17.076Z,65.2
2023-05-09T06:04:16.780Z,65.7
2023-05-09T06:05:17.546Z,65.5
2023-05-09T06:06:17.113Z,64.7
2023-05-09T06:07:16.640Z,64.8
2023-05-09T06:08:17.195Z,64.9
2023-05-09T06:09:16.786Z,65.4
2023-05-09T06:10:17.411Z,65.6
2023-05-09T06:11:16.961Z,65.8
2023-05-09T06:12:17.005Z,66.5
2023-05-09T06:13:16.723Z,65.9
2023-05-09T06:14:17.351Z,66.6
2023-05-09T06:15:17.438Z,67.2
2023-05-09T06:16:20.699Z,67.2
2023-05-09T06:17:18.279Z,67.0
2023-05-09T06:18:16.826Z,66.9
2023-05-09T06:19:17.390Z,65.9
2023-05-09T06:20:16.925Z,65.6
2023-05-09T06:21:17.447Z,65.7
2023-05-09T06:22:16.698Z,65.5
2023-05-09T06:23:17.350Z,65.2
2023-05-09T06:24:35.516Z,66.6
2023-05-09T06:25:17.269Z,66.9
2023-05-09T06:26:16.842Z,66.4
2023-05-09T06:27:17.432Z,66.6
2023-05-09T06:28:17.003Z,66.0
2023-05-09T06:29:16.595Z,66.3
2023-05-09T06:30:27.139Z,66.6
2023-05-09T06:31:16.916Z,66.7
2023-05-09T06:32:17.372Z,66.1
2023-05-09T06:33:16.919Z,66.5
2023-05-09T06:34:17.466Z,66.8
2023-05-09T06:35:17.213Z,66.3
2023-05-09T06:36:16.781Z,65.8
2023-05-09T06:37:17.361Z,65.4
2023-05-09T06:38:16.918Z,64.2
2023-05-09T06:39:17.479Z,64.2
2023-05-09T06:40:17.428Z,63.2
2023-05-09T06:41:17.009Z,62.4
2023-05-09T06:42:17.495Z,61.8
2023-05-09T06:43:17.065Z,60.3
2023-05-09T06:44:16.644Z,60.6
2023-05-09T06:45:18.066Z,60.1
2023-05-09T06:46:16.863Z,59.4
2023-05-09T06:47:17.429Z,58.6
2023-05-09T06:48:17.009Z,58.4
2023-05-09T06:49:16.568Z,57.7
2023-05-09T06:50:17.112Z,57.1
2023-05-09T06:51:16.714Z,56.7
2023-05-09T06:52:16.878Z,56.3
2023-05-09T06:53:17.464Z,56.9
2023-05-09T06:54:17.003Z,57.2
2023-05-09T06:55:17.000Z,57.2
2023-05-09T06:56:19.958Z,56.7
2023-05-09T06:57:16.679Z,57.5
2023-05-09T06:58:17.284Z,58.2
2023-05-09T06:59:16.906Z,58.7
2023-05-09T07:00:17.451Z,58.5
2023-05-09T07:01:17.020Z,58.4
2023-05-09T07:02:17.323Z,60.4
2023-05-09T07:03:16.909Z,59.5
2023-05-09T07:04:17.485Z,56.8
2023-05-09T07:05:17.609Z,57.3
2023-05-09T07:06:17.290Z,60.3
2023-05-09T07:07:16.842Z,61.3
2023-05-09T07:08:17.401Z,60.9
2023-05-09T07:09:16.938Z,58.7
2023-05-09T07:10:17.483Z,58.3
2023-05-09T07:11:17.039Z,57.9
2023-05-09T07:12:16.956Z,56.8
2023-05-09T07:13:17.545Z,57.4
2023-05-09T07:14:17.119Z,57.5
2023-05-09T07:15:40.289Z,58.7
2023-05-09T07:16:17.181Z,61.2
2023-05-09T07:17:24.364Z,61.4
2023-05-09T07:18:16.949Z,61.9
2023-05-09T07:19:17.505Z,61.4
2023-05-09T07:20:17.074Z,61.0
2023-05-09T07:21:16.683Z,60.9
2023-05-09T07:22:16.648Z,60.3
2023-05-09T07:23:17.192Z,57.5
2023-05-09T07:24:16.772Z,56.8
2023-05-09T07:25:17.626Z,56.0
2023-05-09T07:26:17.216Z,54.4
2023-05-09T07:27:16.764Z,54.1
2023-05-09T07:28:17.307Z,54.2
2023-05-09T07:29:16.903Z,52.7
2023-05-09T07:30:17.747Z,52.2
2023-05-09T07:31:17.393Z,52.1
2023-05-09T07:32:17.496Z,51.0
2023-05-09T07:33:17.105Z,51.1
2023-05-09T07:34:16.738Z,50.8
2023-05-09T07:35:17.445Z,52.0
2023-05-09T07:36:16.971Z,53.0
2023-05-09T07:37:16.752Z,52.7
2023-05-09T07:38:17.297Z,52.2
2023-05-09T07:39:16.870Z,50.5
2023-05-09T07:40:18.053Z,49.8
2023-05-09T07:41:16.896Z,49.8
2023-05-09T07:42:16.755Z,48.6
2023-05-09T07:43:17.304Z,48.4
2023-05-09T07:44:16.893Z,47.3
2023-05-09T07:45:20.609Z,50.8
2023-05-09T07:46:16.649Z,52.8
2023-05-09T07:47:17.364Z,50.8
2023-05-09T07:48:16.933Z,52.5
2023-05-09T07:49:17.460Z,52.0
2023-05-09T07:50:17.041Z,52.7
2023-05-09T07:51:16.631Z,51.0
2023-05-09T07:52:16.787Z,51.3
2023-05-09T07:53:16.555Z,49.5
2023-05-09T07:54:17.113Z,50.0
2023-05-09T07:55:17.208Z,48.8
2023-05-09T07:56:16.920Z,48.6
2023-05-09T07:57:17.485Z,47.9
2023-05-09T07:58:17.036Z,48.5
2023-05-09T07:59:16.565Z,48.5
2023-05-09T08:00:17.171Z,46.9
2023-05-09T08:01:16.761Z,46.2
2023-05-09T08:02:16.715Z,46.8
2023-05-09T08:03:17.736Z,48.9
2023-05-09T08:04:17.431Z,50.0
2023-05-09T08:05:17.641Z,47.9
2023-05-09T08:06:17.318Z,48.6
2023-05-09T08:07:17.036Z,50.2
2023-05-09T08:08:16.579Z,50.3
2023-05-09T08:09:17.108Z,49.3
2023-05-09T08:10:16.689Z,50.3
2023-05-09T08:11:17.256Z,49.0
2023-05-09T08:12:16.741Z,47.2
2023-05-09T08:13:17.337Z,46.7
2023-05-09T08:14:16.976Z,47.4
2023-05-09T08:15:17.127Z,45.6
2023-05-09T08:16:17.111Z,45.1
2023-05-09T08:17:16.686Z,45.5
2023-05-09T08:18:17.233Z,45.7
2023-05-09T08:19:16.813Z,44.6
2023-05-09T08:20:17.414Z,45.3
2023-05-09T08:21:17.016Z,45.9
2023-05-09T08:22:16.726Z,45.5
2023-05-09T08:23:17.272Z,44.1
2023-05-09T08:24:16.852Z,43.6
2023-05-09T08:25:17.707Z,43.9
2023-05-09T08:26:17.307Z,45.3
2023-05-09T08:27:16.850Z,45.9
2023-05-09T08:28:18.256Z,44.2
2023-05-09T08:29:16.894Z,46.0
2023-05-09T08:30:17.535Z,47.1
2023-05-09T08:31:17.243Z,47.8
2023-05-09T08:32:17.478Z,45.1
2023-05-09T08:33:17.049Z,44.1
2023-05-09T08:34:16.689Z,44.7
2023-05-09T08:35:17.834Z,44.5
2023-05-09T08:36:17.454Z,44.8
2023-05-09T08:37:17.005Z,44.2
2023-05-09T08:38:16.540Z,44.3
2023-05-09T08:39:17.136Z,44.0
2023-05-09T08:40:17.287Z,45.4
2023-05-09T08:41:16.979Z,42.3
2023-05-09T08:42:17.485Z,42.1
2023-05-09T08:43:17.083Z,43.2
2023-05-09T08:44:16.641Z,43.9
2023-05-09T08:45:17.222Z,44.7
2023-05-09T08:46:16.827Z,43.0
2023-05-09T08:47:17.410Z,43.3
2023-05-09T08:48:16.969Z,43.3
2023-05-09T08:49:16.551Z,43.7
2023-05-09T08:50:17.784Z,44.7
2023-05-09T08:51:17.436Z,45.5
2023-05-09T08:52:17.036Z,48.4
2023-05-09T08:53:16.581Z,49.2
2023-05-09T08:54:17.113Z,46.9
2023-05-09T08:55:16.686Z,47.0
2023-05-09T08:56:17.280Z,48.2
2023-05-09T08:57:16.901Z,46.5
2023-05-09T08:58:17.448Z,46.9
2023-05-09T08:59:17.042Z,48.5
2023-05-09T09:00:21.064Z,48.1
2023-05-09T09:01:16.848Z,46.2
2023-05-09T09:02:17.218Z,45.8
2023-05-09T09:03:16.774Z,44.3
2023-05-09T09:04:17.427Z,43.7
2023-05-09T09:05:39.852Z,43.3
2023-05-09T09:06:17.279Z,43.9
2023-05-09T09:07:16.834Z,43.2
2023-05-09T09:08:17.400Z,45.0
2023-05-09T09:09:16.973Z,45.0
2023-05-09T09:10:16.982Z,43.9
2023-05-09T09:11:16.633Z,44.3
2023-05-09T09:12:17.106Z,43.3
2023-05-09T09:13:17.042Z,43.4
2023-05-09T09:14:16.650Z,43.7
2023-05-09T09:15:17.206Z,45.1
2023-05-09T09:16:16.870Z,42.0
2023-05-09T09:17:17.449Z,41.8
2023-05-09T09:18:17.010Z,41.0
2023-05-09T09:19:16.572Z,42.2
2023-05-09T09:20:17.490Z,45.2
2023-05-09T09:21:17.214Z,43.2
2023-05-09T09:22:17.204Z,44.3
2023-05-09T09:23:16.783Z,45.6
2023-05-09T09:24:17.367Z,45.7
2023-05-09T09:25:16.910Z,45.0
2023-05-09T09:26:17.475Z,44.0
2023-05-09T09:27:17.048Z,40.7
2023-05-09T09:28:16.642Z,40.7
2023-05-09T09:29:17.217Z,42.4
2023-05-09T09:30:17.250Z,42.1
2023-05-09T09:31:17.507Z,41.3
2023-05-09T09:32:17.307Z,41.3
2023-05-09T09:33:16.983Z,40.5
2023-05-09T09:34:16.529Z,40.7
2023-05-09T09:35:17.112Z,40.4
2023-05-09T09:36:16.660Z,40.5
2023-05-09T09:37:17.221Z,41.5
2023-05-09T09:38:16.759Z,41.0
2023-05-09T09:39:17.304Z,38.9
2023-05-09T09:40:17.316Z,38.5
2023-05-09T09:41:16.978Z,39.0
2023-05-09T09:42:16.678Z,39.3
2023-05-09T09:43:17.263Z,38.7
2023-05-09T09:44:16.813Z,38.5
2023-05-09T09:45:17.370Z,37.2
2023-05-09T09:46:17.128Z,36.8
2023-05-09T09:47:16.750Z,37.7
2023-05-09T09:48:17.331Z,38.2
2023-05-09T09:49:16.926Z,36.8
2023-05-09T09:50:18.012Z,36.8
2023-05-09T09:51:16.755Z,36.8
2023-05-09T09:52:17.321Z,37.9
2023-05-09T09:53:16.885Z,39.6
2023-05-09T09:54:17.491Z,39.0
2023-05-09T09:55:17.061Z,39.2
2023-05-09T09:56:16.637Z,38.8
2023-05-09T09:57:17.233Z,39.5
2023-05-09T09:58:16.807Z,41.5
2023-05-09T09:59:17.396Z,40.0
2023-05-09T10:00:17.706Z,38.9
2023-05-09T10:01:17.499Z,39.0
2023-05-09T10:02:16.656Z,39.1
2023-05-09T10:03:17.493Z,40.1
2023-05-09T10:04:17.356Z,39.3
2023-05-09T10:05:16.996Z,37.8
2023-05-09T10:06:16.576Z,37.8
2023-05-09T10:07:17.168Z,38.2
2023-05-09T10:08:16.720Z,38.6
2023-05-09T10:09:17.280Z,39.6
2023-05-09T10:10:17.462Z,40.9
2023-05-09T10:11:17.151Z,39.6
2023-05-09T10:12:17.337Z,39.5
2023-05-09T10:13:16.938Z,40.7
2023-05-09T10:14:16.521Z,39.2
2023-05-09T10:15:17.089Z,39.0
2023-05-09T10:16:21.405Z,38.6
2023-05-09T10:17:17.507Z,38.1
2023-05-09T10:18:17.448Z,38.0
2023-05-09T10:19:17.107Z,37.0
2023-05-09T10:20:17.027Z,36.9
2023-05-09T10:21:16.748Z,37.3
2023-05-09T10:22:17.302Z,37.7
2023-05-09T10:23:16.888Z,36.9
2023-05-09T10:24:17.460Z,35.7
2023-05-09T10:25:17.512Z,37.0
2023-05-09T10:26:17.098Z,37.8
2023-05-09T10:27:16.652Z,38.3
2023-05-09T10:28:17.192Z,36.9
2023-05-09T10:29:16.736Z,38.9
2023-05-09T10:30:17.312Z,39.5
2023-05-09T10:31:16.957Z,40.2
2023-05-09T10:32:17.388Z,41.0
2023-05-09T10:33:16.967Z,39.4
2023-05-09T10:34:16.541Z,39.1
2023-05-09T10:35:17.683Z,41.0
2023-05-09T10:36:17.327Z,38.5
2023-05-09T10:37:16.906Z,39.1
2023-05-09T10:38:17.453Z,37.9
2023-05-09T10:39:16.972Z,37.1
2023-05-09T10:40:17.673Z,38.1
2023-05-09T10:41:17.255Z,38.5
2023-05-09T10:42:16.896Z,37.8
2023-05-09T10:43:17.424Z,37.8
2023-05-09T10:44:16.975Z,36.9
2023-05-09T10:45:17.208Z,36.5
2023-05-09T10:46:17.003Z,37.1
2023-05-09T10:47:16.632Z,36.7
2023-05-09T10:48:17.218Z,35.3
2023-05-09T10:49:16.756Z,35.2
2023-05-09T10:50:17.356Z,35.6
2023-05-09T10:51:16.927Z,36.4
2023-05-09T10:52:16.606Z,37.5
2023-05-09T10:53:17.409Z,39.8
2023-05-09T10:54:16.977Z,38.6
2023-05-09T10:55:17.019Z,40.1
2023-05-09T10:56:16.713Z,39.5
2023-05-09T10:57:17.259Z,39.0
2023-05-09T10:58:16.845Z,38.7
2023-05-09T10:59:17.405Z,38.5
2023-05-09T11:00:17.082Z,37.3
2023-05-09T11:01:16.730Z,36.9
2023-05-09T11:02:17.299Z,36.3
2023-05-09T11:03:16.911Z,36.4
2023-05-09T11:04:17.553Z,37.1
2023-05-09T11:05:17.498Z,39.0
2023-05-09T11:06:17.068Z,38.8
2023-05-09T11:07:16.624Z,38.2
2023-05-09T11:08:17.145Z,37.8
2023-05-09T11:09:16.699Z,37.3
2023-05-09T11:10:17.353Z,38.9
2023-05-09T11:11:16.907Z,39.8
2023-05-09T11:12:16.539Z,38.8
2023-05-09T11:13:17.134Z,38.4
2023-05-09T11:14:16.756Z,38.6
2023-05-09T11:15:17.408Z,40.2
2023-05-09T11:16:17.057Z,40.8
2023-05-09T11:17:16.664Z,40.1
2023-05-09T11:18:19.113Z,40.9
2023-05-09T11:19:16.677Z,40.8
2023-05-09T11:20:17.287Z,39.1
2023-05-09T11:21:16.834Z,39.1
2023-05-09T11:22:16.649Z,40.0
2023-05-09T11:23:17.289Z,38.8
2023-05-09T11:24:16.951Z,38.6
2023-05-09T11:25:18.110Z,39.4
2023-05-09T11:26:16.774Z,37.0
2023-05-09T11:27:17.329Z,37.1
2023-05-09T11:28:16.877Z,37.9
2023-05-09T11:29:17.469Z,37.0
2023-05-09T11:30:17.243Z,37.7
2023-05-09T11:31:16.866Z,37.3
2023-05-09T11:32:17.469Z,36.8
2023-05-09T11:33:17.084Z,36.9
2023-05-09T11:34:16.646Z,36.5
2023-05-09T11:35:17.920Z,37.7
2023-05-09T11:36:16.819Z,38.2
2023-05-09T11:37:17.364Z,37.8
2023-05-09T11:38:16.936Z,37.2
2023-05-09T11:39:17.468Z,38.2
2023-05-09T11:40:17.005Z,39.1
2023-05-09T11:41:16.653Z,38.3
2023-05-09T11:42:16.694Z,38.2
2023-05-09T11:43:17.322Z,38.5
2023-05-09T11:44:16.891Z,38.3
2023-05-09T11:45:17.989Z,39.1
2023-05-09T11:46:16.753Z,39.0
2023-05-09T11:47:17.275Z,39.1
2023-05-09T11:48:16.823Z,38.8
2023-05-09T11:49:17.446Z,37.9
2023-05-09T11:50:17.125Z,39.0
2023-05-09T11:51:16.771Z,38.3
2023-05-09T11:52:16.520Z,37.8
2023-05-09T11:53:17.130Z,37.7
2023-05-09T11:54:16.738Z,38.1
2023-05-09T11:55:18.149Z,38.1
2023-05-09T11:56:16.887Z,38.6
2023-05-09T11:57:17.565Z,39.7
2023-05-09T11:58:17.126Z,40.3
2023-05-09T11:59:16.689Z,39.4
2023-05-09T12:00:17.289Z,39.1
2023-05-09T12:01:16.836Z,39.4
2023-05-09T12:02:17.273Z,39.4
2023-05-09T12:03:17.264Z,39.8
2023-05-09T12:04:16.944Z,40.2
2023-05-09T12:05:17.988Z,39.9
2023-05-09T12:06:16.633Z,37.7
2023-05-09T12:07:17.199Z,37.7
2023-05-09T12:08:16.806Z,38.2
2023-05-09T12:09:17.362Z,38.0
2023-05-09T12:10:17.025Z,39.0
2023-05-09T12:11:16.578Z,38.4
2023-05-09T12:12:17.463Z,39.2
2023-05-09T12:13:17.051Z,40.2
2023-05-09T12:14:16.672Z,40.7
2023-05-09T12:15:18.181Z,41.4
2023-05-09T12:16:17.245Z,40.7
2023-05-09T12:17:16.845Z,41.0
2023-05-09T12:18:17.414Z,41.3
2023-05-09T12:19:16.996Z,41.0
2023-05-09T12:20:16.688Z,40.4
2023-05-09T12:21:17.264Z,40.0
2023-05-09T12:22:16.762Z,40.3
2023-05-09T12:23:17.340Z,39.6
2023-05-09T12:24:16.897Z,40.2
2023-05-09T12:25:18.011Z,39.9
2023-05-09T12:26:16.674Z,39.6
2023-05-09T12:27:17.251Z,38.8
2023-05-09T12:28:17.103Z,39.6
2023-05-09T12:29:16.701Z,40.0
2023-05-09T12:30:17.265Z,39.6
2023-05-09T12:31:16.838Z,38.7
2023-05-09T12:32:16.601Z,38.6
2023-05-09T12:33:17.160Z,38.9
2023-05-09T12:34:16.720Z,39.1
2023-05-09T12:35:17.577Z,39.2
2023-05-09T12:36:17.219Z,38.5
2023-05-09T12:37:16.799Z,38.3
2023-05-09T12:38:17.377Z,38.1
2023-05-09T12:39:16.942Z,37.8
2023-05-09T12:40:17.522Z,37.9
2023-05-09T12:41:37.272Z,37.8
2023-05-09T12:42:16.504Z,36.7
2023-05-09T12:43:17.080Z,37.0
2023-05-09T12:44:16.625Z,37.7
2023-05-09T12:45:17.836Z,37.7
2023-05-09T12:46:16.700Z,38.0
2023-05-09T12:47:17.379Z,37.8
2023-05-09T12:48:16.926Z,37.8
2023-05-09T12:49:17.477Z,37.6
2023-05-09T12:50:17.016Z,37.0
2023-05-09T12:51:16.574Z,36.2
2023-05-09T12:52:17.343Z,36.0
2023-05-09T12:53:16.890Z,36.1
2023-05-09T12:54:17.466Z,35.1
2023-05-09T12:55:17.299Z,35.1
2023-05-09T12:56:16.952Z,36.3
2023-05-09T12:57:17.563Z,36.0
2023-05-09T12:58:17.171Z,36.0
2023-05-09T12:59:16.717Z,35.4
2023-05-09T13:00:17.274Z,35.3
2023-05-09T13:01:16.880Z,35.2
2023-05-09T13:02:17.296Z,35.9
2023-05-09T13:03:17.136Z,34.5
2023-05-09T13:04:16.728Z,33.7
2023-05-09T13:05:17.650Z,31.6
2023-05-09T13:06:17.254Z,31.3
2023-05-09T13:07:16.800Z,31.4
2023-05-09T13:08:17.347Z,31.3
2023-05-09T13:09:16.944Z,32.0
2023-05-09T13:10:17.505Z,32.8
2023-05-09T13:11:17.531Z,33.1
2023-05-09T13:12:16.709Z,33.3
2023-05-09T13:13:17.338Z,32.8
2023-05-09T13:14:16.925Z,32.6
2023-05-09T13:15:17.177Z,33.9
2023-05-09T13:16:18.310Z,33.4
2023-05-09T13:17:16.920Z,33.2
2023-05-09T13:18:17.499Z,33.7